M I D A S
Marine Information and Data Acquisition System
Tripno 1637 of the Zeeleeuw from 2009-01-30 08:06:06 to 2009-01-30 14:33:32
Back to CruiseResearch ActivitiesStationsMapUnderway DataData graphs

EquipmentUnitsComment
TimeDGPSUTC
LatitudeDGPSDM.mWGS84
LongitudeDGPSDM.mWGS84
TemperatureSBE03/SBE38deg celciusITS90
ConductivitySBE21S/mITS90
SalinitySBE21 Practical Salinity Units
ChlorophylAChelsea fluorimeterg/lCalibrated in Aceton
Missing or incorrect values are displayed as -999
Sea surface data collected by the RV Zeeleeuw from 2009-01-30 08:08:23 to 2009-01-30 14:40:02
Time Latitude Longitude Temperature Conductivity Salinity ChlorophylA
2009-01-30 08:09:28 51°13.677 2°55.917 -999 0.089238 0.512688 -0.896096
2009-01-30 08:10:29 51°13.699 2°55.83 -999 0.089238 0.512717 -0.896096
2009-01-30 08:11:28 51°13.7 2°55.76 -999 0.089238 0.512717 -0.896096
2009-01-30 08:12:28 51°13.713 2°55.763 -999 0.089238 0.512784 -0.896096
2009-01-30 08:13:28 51°13.736 2°55.73 -999 0.089238 0.512813 -0.896096
2009-01-30 08:14:28 51°13.819 2°55.643 -999 0.089238 0.512813 -0.896096
2009-01-30 08:15:28 51°13.93 2°55.558 -999 0.089238 0.512852 -0.896096
2009-01-30 08:16:28 51°14.052 2°55.47 -999 0.089238 0.512881 -0.896096
2009-01-30 08:17:28 51°14.178 2°55.368 -999 0.089238 0.5129 -0.896096
2009-01-30 08:18:28 51°14.293 2°55.218 -999 0.089238 0.512929 -0.896096
2009-01-30 08:19:28 51°14.388 2°55.011 -999 0.089136 0.512324 -0.896096
2009-01-30 08:20:28 51°14.519 2°54.83 -999 0.089238 0.512939 -0.896096
2009-01-30 08:21:28 51°14.679 2°54.667 -999 0.089136 0.512449 -0.896096
2009-01-30 08:22:28 51°14.847 2°54.492 -999 0.089136 0.512391 -0.896096
2009-01-30 08:23:28 51°15.013 2°54.324 -999 0.089136 0.51242 -0.896096
2009-01-30 08:24:28 51°15.186 2°54.16 -999 0.089136 0.512449 -0.896096
2009-01-30 08:25:28 51°15.36 2°53.995 -999 0.089136 0.512478 -0.896096
2009-01-30 08:26:27 51°15.535 2°53.842 -999 0.089136 0.512507 -0.896096
2009-01-30 08:27:28 51°15.718 2°53.69 -999 0.089136 0.512536 -0.896096
2009-01-30 08:28:28 51°15.896 2°53.533 -999 0.089136 0.512575 -0.896096
2009-01-30 08:29:28 51°16.077 2°53.376 -999 0.089136 0.512613 -0.896096
2009-01-30 08:30:28 51°16.257 2°53.216 -999 0.089136 0.512642 -0.896096
2009-01-30 08:31:28 51°16.437 2°53.055 -999 0.089136 0.512671 -0.896096
2009-01-30 08:32:28 51°16.616 2°52.896 -999 0.089136 0.5127 -0.896096
2009-01-30 08:33:28 51°16.795 2°52.751 -999 0.089136 0.512739 -0.896096
2009-01-30 08:34:28 51°16.974 2°52.617 -999 0.089136 0.512768 -0.896096
2009-01-30 08:35:27 51°17.151 2°52.485 -999 0.089136 0.512797 -0.896096
2009-01-30 08:36:28 51°17.335 2°52.347 -999 0.089033 0.512201 -0.896096
2009-01-30 08:37:28 51°17.513 2°52.198 -999 0.089033 0.51223 -0.896096
2009-01-30 08:38:28 51°17.688 2°52.037 -999 0.089033 0.512269 -0.896096
2009-01-30 08:39:28 51°17.859 2°51.872 -999 0.089033 0.512307 -0.896096
2009-01-30 08:40:28 51°18.031 2°51.7 -999 0.089033 0.512327 -0.896096
2009-01-30 08:41:28 51°18.205 2°51.528 -999 0.089033 0.512365 -0.896096
2009-01-30 08:42:28 51°18.378 2°51.346 -999 0.089033 0.512384 -0.896096
2009-01-30 08:43:28 51°18.55 2°51.16 -999 0.089033 0.512413 -0.896096
2009-01-30 08:44:28 51°18.719 2°50.966 -999 0.089033 0.512442 -0.896096
2009-01-30 08:45:28 51°18.888 2°50.77 -999 0.089033 0.512481 -0.896096
2009-01-30 08:46:28 51°19.06 2°50.579 -999 0.089033 0.51252 -0.896096
2009-01-30 08:47:28 51°19.228 2°50.38 -999 0.089033 0.512558 -0.896096
2009-01-30 08:48:28 51°19.399 2°50.186 -999 0.089033 0.512587 -0.896096
2009-01-30 08:49:28 51°19.569 2°49.986 -999 0.089033 0.512626 -0.896096
2009-01-30 08:50:28 51°19.742 2°49.792 -999 0.089033 0.512665 -0.896096
2009-01-30 08:51:28 51°19.922 2°49.607 -999 0.089033 0.512684 -0.896096
2009-01-30 08:52:28 51°20.1 2°49.41 -999 0.08893 0.512107 -0.896096
2009-01-30 08:53:28 51°20.276 2°49.204 -999 0.08893 0.512155 -0.861272
2009-01-30 08:54:28 51°20.454 2°49.004 -999 0.08893 0.512194 -0.896096
2009-01-30 08:55:28 51°20.631 2°48.804 -999 0.08893 0.512223 -0.896096
2009-01-30 08:56:28 51°20.805 2°48.598 -999 0.08893 0.512262 -0.896096
2009-01-30 08:57:28 51°20.981 2°48.403 -999 0.08893 0.512291 -0.896096
2009-01-30 08:58:28 51°21.159 2°48.21 -999 0.08893 0.512339 -0.896096
2009-01-30 08:59:28 51°21.343 2°48.029 -999 0.08893 0.512368 -0.896096
2009-01-30 09:00:28 51°21.525 2°47.838 -999 0.08893 0.512407 -0.861272
2009-01-30 09:01:28 51°21.706 2°47.649 -999 0.08893 0.512436 -0.896096
2009-01-30 09:02:28 51°21.889 2°47.463 -999 0.08893 0.512474 -0.896096
2009-01-30 09:03:28 51°22.07 2°47.276 -999 0.08893 0.512513 -0.896096
2009-01-30 09:04:28 51°22.25 2°47.096 -999 0.08893 0.512542 -0.896096
2009-01-30 09:05:29 51°22.428 2°46.907 -999 0.088827 0.511965 -0.896096
2009-01-30 09:06:28 51°22.598 2°46.714 -999 0.088827 0.512013 -0.896096
2009-01-30 09:07:28 51°22.765 2°46.507 -999 0.088827 0.512042 -0.896096
2009-01-30 09:08:28 51°22.931 2°46.302 -999 0.088827 0.512071 -0.861272
2009-01-30 09:09:28 51°23.1 2°46.1 -999 0.088827 0.51211 -0.896096
2009-01-30 09:10:28 51°23.271 2°45.905 -999 0.088827 0.512158 -0.896096
2009-01-30 09:11:28 51°23.442 2°45.716 -999 0.088827 0.512197 -0.896096
2009-01-30 09:12:28 51°23.611 2°45.519 -999 0.088827 0.512245 -0.896096
2009-01-30 09:13:28 51°23.781 2°45.327 -999 0.088827 0.512274 -0.896096
2009-01-30 09:14:28 51°23.955 2°45.142 -999 0.088827 0.512313 -0.896096
2009-01-30 09:15:28 51°24.127 2°44.96 -999 0.088827 0.512361 -0.896096
2009-01-30 09:16:28 51°24.3 2°44.785 -999 0.088827 0.5124 -0.896096
2009-01-30 09:17:28 51°24.471 2°44.608 -999 0.088827 0.512449 -0.861272
2009-01-30 09:18:28 51°24.641 2°44.424 -999 0.088724 0.51187 -0.861272
2009-01-30 09:19:28 51°24.816 2°44.253 -999 0.088724 0.511909 -0.861272
2009-01-30 09:20:28 51°24.988 2°44.074 -999 0.088724 0.511958 -0.896096
2009-01-30 09:21:28 51°25.161 2°43.902 -999 0.088724 0.512016 -0.896096
2009-01-30 09:22:28 51°25.329 2°43.717 -999 0.088724 0.512045 -0.896096
2009-01-30 09:23:28 51°25.499 2°43.54 -999 0.088724 0.512093 -0.896096
2009-01-30 09:24:28 51°25.668 2°43.359 -999 0.088724 0.512142 -0.896096
2009-01-30 09:25:28 51°25.84 2°43.186 -999 0.088724 0.512171 -0.896096
2009-01-30 09:26:28 51°26.008 2°43.002 -999 0.088724 0.512229 -0.861272
2009-01-30 09:27:27 51°26.178 2°42.832 -999 0.088724 0.512258 -0.861272
2009-01-30 09:28:27 51°26.35 2°42.661 -999 0.088621 0.511689 -0.861272
2009-01-30 09:29:27 51°26.521 2°42.486 -999 0.088621 0.511718 -0.896096
2009-01-30 09:30:28 51°26.695 2°42.31 -999 0.088621 0.511767 -0.896096
2009-01-30 09:31:27 51°26.866 2°42.146 -999 0.088621 0.511805 -0.896096
2009-01-30 09:32:28 51°27.043 2°41.98 -999 0.088621 0.511844 -0.861272
2009-01-30 09:33:27 51°27.213 2°41.824 -999 0.088621 0.511883 -0.861272
2009-01-30 09:34:28 51°27.392 2°41.665 -999 0.088621 0.511912 -0.861272
2009-01-30 09:35:27 51°27.564 2°41.507 -999 0.088621 0.51197 -0.861272
2009-01-30 09:36:27 51°27.736 2°41.343 -999 0.088621 0.512009 -0.861272
2009-01-30 09:37:28 51°27.908 2°41.173 -999 0.088621 0.512038 -0.861272
2009-01-30 09:38:27 51°28.076 2°41.014 -999 0.088621 0.512087 -0.861272
2009-01-30 09:39:27 51°28.25 2°40.862 -999 0.088621 0.512125 -0.861272
2009-01-30 09:40:27 51°28.428 2°40.733 -999 0.088621 0.512087 -0.861272
2009-01-30 09:41:27 51°28.617 2°40.688 -999 0.088621 0.512213 -0.861272
2009-01-30 09:42:27 51°28.802 2°40.707 -999 0.088518 0.511682 -0.896096
2009-01-30 09:43:28 51°28.991 2°40.738 -999 0.088518 0.511643 -0.861272
2009-01-30 09:44:27 51°29.15 2°40.851 -999 0.088518 0.511682 -0.861272
2009-01-30 09:45:27 51°29.247 2°41.084 -999 0.088518 0.511711 -0.861272
2009-01-30 09:46:28 51°29.331 2°41.343 -999 0.088518 0.51174 -0.896096
2009-01-30 09:47:27 51°29.418 2°41.585 -999 0.088518 0.511789 -0.861272
2009-01-30 09:48:27 51°29.508 2°41.831 -999 0.088518 0.511828 -0.896096
2009-01-30 09:49:27 51°29.592 2°42.083 -999 0.088518 0.511857 -0.896096
2009-01-30 09:50:27 51°29.675 2°42.336 -999 0.088518 0.511905 -0.896096
2009-01-30 09:51:27 51°29.77 2°42.579 -999 0.088518 0.511944 -0.896096
2009-01-30 09:52:27 51°29.863 2°42.822 -999 0.088518 0.511983 -0.896096
2009-01-30 09:53:27 51°29.952 2°43.064 -999 0.088518 0.512012 -0.896096
2009-01-30 09:54:27 51°30.039 2°43.308 -999 0.088518 0.512051 -0.896096
2009-01-30 09:55:27 51°30.129 2°43.549 -999 0.088415 0.511462 -0.896096
2009-01-30 09:56:28 51°30.217 2°43.799 -999 0.088415 0.5115 -0.896096
2009-01-30 09:57:28 51°30.305 2°44.045 -999 0.088415 0.511539 -0.896096
2009-01-30 09:58:28 51°30.394 2°44.289 -999 0.088415 0.511578 -0.896096
2009-01-30 09:59:28 51°30.481 2°44.535 -999 0.088415 0.511617 -0.896096
2009-01-30 10:00:29 51°30.577 2°44.776 -999 0.088415 0.511666 -0.896096
2009-01-30 10:01:28 51°30.665 2°45.013 -999 0.088415 0.511704 -0.896096
2009-01-30 10:02:28 51°30.758 2°45.255 -999 0.088415 0.511743 -0.861272
2009-01-30 10:03:28 51°30.849 2°45.495 -999 0.088415 0.511773 -0.896096
2009-01-30 10:04:27 51°30.939 2°45.735 -999 0.088415 0.511821 -0.896096
2009-01-30 10:05:28 51°31.03 2°45.981 -999 0.088415 0.51185 -0.896096
2009-01-30 10:06:28 51°31.116 2°46.228 -999 0.088415 0.511889 -0.896096
2009-01-30 10:07:28 51°31.206 2°46.468 -999 0.088415 0.511938 -0.896096
2009-01-30 10:08:28 51°31.297 2°46.707 -999 0.088415 0.511987 -0.896096
2009-01-30 10:09:29 51°31.387 2°46.95 -999 0.088312 0.511396 -0.896096
2009-01-30 10:10:28 51°31.469 2°47.193 -999 0.088312 0.511445 -0.896096
2009-01-30 10:11:27 51°31.553 2°47.436 -999 0.088312 0.511484 -0.861272
2009-01-30 10:12:26 51°31.639 2°47.678 -999 0.088312 0.511542 -0.896096
2009-01-30 10:13:25 51°31.727 2°47.918 -999 0.088312 0.511581 -0.896096
2009-01-30 10:14:25 51°31.82 2°48.157 -999 0.088312 0.51162 -0.896096
2009-01-30 10:15:25 51°31.908 2°48.405 -999 0.088312 0.511669 -0.896096
2009-01-30 10:16:25 51°31.995 2°48.652 -999 0.088312 0.511708 -0.861272
2009-01-30 10:17:25 51°32.086 2°48.892 -999 0.088312 0.511747 -0.896096
2009-01-30 10:18:25 51°32.175 2°49.137 -999 0.088312 0.511786 -0.896096
2009-01-30 10:19:25 51°32.266 2°49.377 -999 0.088312 0.511834 -0.896096
2009-01-30 10:20:25 51°32.355 2°49.622 -999 0.088312 0.511873 -0.896096
2009-01-30 10:21:25 51°32.445 2°49.865 -999 0.088312 0.511903 -0.896096
2009-01-30 10:22:25 51°32.535 2°50.108 -999 0.088209 0.511322 -0.896096
2009-01-30 10:23:25 51°32.622 2°50.353 -999 0.088209 0.51136 -0.896096
2009-01-30 10:24:24 51°32.702 2°50.602 -999 0.088209 0.511409 -0.896096
2009-01-30 10:25:25 51°32.791 2°50.854 -999 0.088209 0.511438 -0.896096
2009-01-30 10:26:24 51°32.881 2°51.093 -999 0.088209 0.511487 -0.896096
2009-01-30 10:27:25 51°32.971 2°51.344 -999 0.088209 0.511526 -0.896096
2009-01-30 10:28:25 51°33.059 2°51.59 -999 0.088209 0.511555 -0.896096
2009-01-30 10:29:25 51°33.148 2°51.838 -999 0.088209 0.511594 -0.896096
2009-01-30 10:30:25 51°33.236 2°52.088 -999 0.088209 0.511633 -0.896096
2009-01-30 10:31:25 51°33.322 2°52.337 -999 0.088209 0.511663 -0.896096
2009-01-30 10:32:25 51°33.411 2°52.579 -999 0.088209 0.511702 -0.896096
2009-01-30 10:33:25 51°33.5 2°52.823 -999 0.088209 0.511741 -0.896096
2009-01-30 10:34:25 51°33.593 2°53.064 -999 0.088209 0.51178 -0.896096
2009-01-30 10:35:25 51°33.68 2°53.312 -999 0.088209 0.511809 -0.896096
2009-01-30 10:36:25 51°33.768 2°53.557 -999 0.088107 0.511227 -0.896096
2009-01-30 10:37:25 51°33.857 2°53.803 -999 0.088107 0.511266 -0.896096
2009-01-30 10:38:25 51°33.943 2°54.051 -999 0.088107 0.511286 -0.896096
2009-01-30 10:39:25 51°34.032 2°54.294 -999 0.088107 0.511325 -0.896096
2009-01-30 10:40:25 51°34.119 2°54.538 -999 0.088107 0.511373 -0.896096
2009-01-30 10:41:24 51°34.207 2°54.777 -999 0.088107 0.511412 -0.896096
2009-01-30 10:42:25 51°34.296 2°55.025 -999 0.088107 0.511442 -0.896096
2009-01-30 10:43:25 51°34.38 2°55.274 -999 0.088107 0.511481 -0.896096
2009-01-30 10:44:25 51°34.463 2°55.521 -999 0.088107 0.51152 -0.896096
2009-01-30 10:45:25 51°34.547 2°55.768 -999 0.088107 0.511549 -0.896096
2009-01-30 10:46:25 51°34.631 2°56.015 -999 0.088107 0.511588 -0.826448
2009-01-30 10:47:25 51°34.717 2°56.259 -999 0.088107 0.511617 -0.826448
2009-01-30 10:48:25 51°34.808 2°56.497 -999 0.088107 0.511666 -0.826448
2009-01-30 10:49:25 51°34.898 2°56.738 -999 0.088107 0.511705 -0.791624
2009-01-30 10:50:25 51°34.984 2°56.983 -999 0.088107 0.511735 -1.035392
2009-01-30 10:51:25 51°35.069 2°57.228 -999 0.088107 0.511764 -1.035392
2009-01-30 10:52:25 51°35.112 2°57.502 -999 0.088004 0.511201 -1.070216
2009-01-30 10:53:25 51°35.081 2°57.789 -999 0.088004 0.51123 -1.035392
2009-01-30 10:54:25 51°35.007 2°58.067 -999 0.088004 0.511269 -1.035392
2009-01-30 10:55:25 51°34.931 2°58.344 -999 0.088004 0.511289 -1.070216
2009-01-30 10:56:25 51°34.855 2°58.623 -999 0.088004 0.511309 -1.035392
2009-01-30 10:57:26 51°34.751 2°58.892 -999 0.088004 0.511338 -1.070216
2009-01-30 10:58:25 51°34.64 2°59.143 -999 0.088004 0.511367 -1.070216
2009-01-30 10:59:25 51°34.503 2°59.378 -999 0.088004 0.511406 -1.070216
2009-01-30 11:00:24 51°34.357 2°59.597 -999 0.088004 0.511445 -1.035392
2009-01-30 11:01:25 51°34.2 2°59.82 -999 0.088004 0.511475 -1.070216
2009-01-30 11:02:24 51°34.047 3°0.037 -999 0.088004 0.511514 -1.035392
2009-01-30 11:03:25 51°33.894 3°0.273 -999 0.088004 0.511543 -1.070216
2009-01-30 11:04:24 51°33.742 3°0.501 -999 0.088004 0.511582 -1.070216
2009-01-30 11:05:24 51°33.569 3°0.707 -999 0.088004 0.511611 -1.070216
2009-01-30 11:06:26 51°33.355 3°0.806 -999 0.088004 0.511651 -1.070216
2009-01-30 11:07:25 51°33.141 3°0.746 -999 0.088004 0.511709 -1.070216
2009-01-30 11:08:24 51°32.938 3°0.587 -999 0.088004 0.511739 -1.070216
2009-01-30 11:09:25 51°32.745 3°0.364 -999 0.087901 0.511165 -1.070216
2009-01-30 11:10:25 51°32.566 3°0.121 -999 0.087901 0.511205 -1.070216
2009-01-30 11:11:25 51°32.389 2°59.87 -999 0.087901 0.511244 -1.070216
2009-01-30 11:12:25 51°32.228 2°59.595 -999 0.087901 0.511283 -1.070216
2009-01-30 11:13:26 51°32.085 2°59.289 -999 0.087901 0.511341 -1.070216
2009-01-30 11:14:24 51°31.954 2°58.993 -999 0.087901 0.51139 -1.070216
2009-01-30 11:15:26 51°31.815 2°58.677 -999 0.087901 0.51143 -1.070216
2009-01-30 11:16:25 51°31.704 2°58.357 -999 0.087901 0.511478 -1.070216
2009-01-30 11:17:26 51°31.583 2°58.034 -999 0.087901 0.511518 -1.070216
2009-01-30 11:18:25 51°31.466 2°57.719 -999 0.087901 0.511567 -1.070216
2009-01-30 11:19:25 51°31.35 2°57.398 -999 0.087901 0.511606 -1.070216
2009-01-30 11:20:25 51°31.231 2°57.077 -999 0.087901 0.511645 -1.070216
2009-01-30 11:21:25 51°31.114 2°56.752 -999 0.087901 0.511694 -1.070216
2009-01-30 11:22:26 51°30.99 2°56.426 -999 0.087798 0.51112 -1.070216
2009-01-30 11:23:25 51°30.871 2°56.111 -999 0.087798 0.511159 -1.070216
2009-01-30 11:24:26 51°30.756 2°55.778 -999 0.087798 0.511208 -1.070216
2009-01-30 11:25:25 51°30.649 2°55.452 -999 0.087798 0.511247 -1.10504
2009-01-30 11:26:25 51°30.537 2°55.128 -999 0.087798 0.511287 -1.070216
2009-01-30 11:27:25 51°30.425 2°54.803 -999 0.087798 0.511336 -1.070216
2009-01-30 11:28:25 51°30.313 2°54.476 -999 0.087798 0.511355 -1.070216
2009-01-30 11:29:26 51°30.195 2°54.151 -999 0.087798 0.511404 -1.10504
2009-01-30 11:30:25 51°30.075 2°53.841 -999 0.087798 0.511453 -1.10504
2009-01-30 11:31:26 51°29.954 2°53.52 -999 0.087798 0.511483 -1.10504
2009-01-30 11:32:26 51°29.841 2°53.196 -999 0.087798 0.511532 -1.070216
2009-01-30 11:33:25 51°29.729 2°52.878 -999 0.087798 0.511571 -1.10504
2009-01-30 11:34:25 51°29.612 2°52.557 -999 0.087798 0.51161 -1.070216
2009-01-30 11:35:25 51°29.499 2°52.233 -999 0.087695 0.511036 -1.10504
2009-01-30 11:36:25 51°29.43 2°51.886 -999 0.087695 0.511075 -1.10504
2009-01-30 11:37:25 51°29.466 2°51.538 -999 0.087695 0.511124 -1.070216
2009-01-30 11:38:25 51°29.559 2°51.228 -999 0.087695 0.511153 -1.070216
2009-01-30 11:39:25 51°29.69 2°50.973 -999 0.087695 0.511212 -1.070216
2009-01-30 11:40:25 51°29.848 2°50.86 -999 0.087695 0.511261 -1.10504
2009-01-30 11:41:25 51°29.952 2°51.062 -999 0.087695 0.5113 -1.10504
2009-01-30 11:42:25 51°29.979 2°51.348 -999 0.087695 0.51133 -1.10504
2009-01-30 11:43:26 51°29.95 2°51.647 -999 0.087695 0.511359 -1.10504
2009-01-30 11:44:25 51°29.901 2°51.935 -999 0.087695 0.511408 -1.10504
2009-01-30 11:45:26 51°29.848 2°52.233 -999 0.087695 0.511428 -1.070216
2009-01-30 11:46:25 51°29.817 2°52.523 -999 0.087695 0.511477 -1.10504
2009-01-30 11:47:25 51°29.866 2°52.801 -999 0.087695 0.511497 -1.10504
2009-01-30 11:48:25 51°29.948 2°53.062 -999 0.087695 0.511516 -1.10504
2009-01-30 11:49:26 51°30.017 2°53.34 -999 0.087695 0.511556 -1.10504
2009-01-30 11:50:25 51°30.084 2°53.607 -999 0.087592 0.510981 -1.10504
2009-01-30 11:51:26 51°30.148 2°53.888 -999 0.087592 0.511 -1.10504
2009-01-30 11:52:25 51°30.214 2°54.157 -999 0.087592 0.51104 -1.070216
2009-01-30 11:53:24 51°30.285 2°54.424 -999 0.087592 0.511079 -1.10504
2009-01-30 11:54:26 51°30.369 2°54.698 -999 0.087592 0.511108 -1.070216
2009-01-30 11:55:25 51°30.449 2°54.96 -999 0.087592 0.511148 -1.10504
2009-01-30 11:56:26 51°30.533 2°55.231 -999 0.087592 0.511187 -1.10504
2009-01-30 11:57:25 51°30.616 2°55.491 -999 0.087592 0.511216 -1.10504
2009-01-30 11:58:26 51°30.693 2°55.763 -999 0.087592 0.511246 -1.10504
2009-01-30 11:59:24 51°30.784 2°56.002 -999 0.087592 0.511275 -1.10504
2009-01-30 12:00:26 51°30.876 2°56.259 -999 0.087592 0.511315 -1.10504
2009-01-30 12:01:26 51°30.956 2°56.512 -999 0.087592 0.511344 -1.10504
2009-01-30 12:02:25 51°31.038 2°56.758 -999 0.087592 0.511373 -1.139864
2009-01-30 12:03:26 51°31.124 2°57.01 -999 0.087592 0.511413 -1.10504
2009-01-30 12:04:25 51°31.21 2°57.251 -999 0.087592 0.511442 -1.10504
2009-01-30 12:05:26 51°31.292 2°57.508 -999 0.087592 0.511482 -1.10504
2009-01-30 12:06:25 51°31.375 2°57.754 -999 0.087592 0.511501 -1.10504
2009-01-30 12:07:26 51°31.461 2°58.01 -999 0.087592 0.511531 -1.10504
2009-01-30 12:08:25 51°31.548 2°58.256 -999 0.087592 0.51156 -1.10504
2009-01-30 12:09:26 51°31.638 2°58.516 -999 0.087489 0.510955 -1.10504
2009-01-30 12:10:26 51°31.721 2°58.772 -999 0.087489 0.510995 -1.10504
2009-01-30 12:11:25 51°31.801 2°59.032 -999 0.087489 0.511024 -1.10504
2009-01-30 12:12:26 51°31.886 2°59.297 -999 0.087489 0.511054 -1.10504
2009-01-30 12:13:25 51°31.971 2°59.552 -999 0.087489 0.511073 -1.10504
2009-01-30 12:14:26 51°32.055 2°59.818 -999 0.087489 0.511103 -1.10504
2009-01-30 12:15:25 51°32.141 3°0.073 -999 0.087489 0.511132 -1.10504
2009-01-30 12:16:26 51°32.23 3°0.339 -999 0.087489 0.511152 -1.10504
2009-01-30 12:17:26 51°32.313 3°0.61 -999 0.087489 0.511201 -1.10504
2009-01-30 12:18:26 51°32.397 3°0.88 -999 0.087489 0.511221 -1.10504
2009-01-30 12:19:26 51°32.49 3°1.144 -999 0.087489 0.51124 -1.070216
2009-01-30 12:20:25 51°32.58 3°1.404 -999 0.087489 0.51127 -1.10504
2009-01-30 12:21:26 51°32.671 3°1.679 -999 0.087489 0.51129 -1.10504
2009-01-30 12:22:25 51°32.76 3°1.943 -999 0.087489 0.511329 -1.10504
2009-01-30 12:23:26 51°32.852 3°2.217 -999 0.087489 0.511358 -1.10504
2009-01-30 12:24:24 51°32.853 3°2.512 -999 0.087489 0.511388 -1.10504
2009-01-30 12:25:26 51°32.698 3°2.737 -999 0.087489 0.511427 -1.10504
2009-01-30 12:26:26 51°32.481 3°2.758 -999 0.087489 0.511457 -1.10504
2009-01-30 12:27:26 51°32.262 3°2.748 -999 0.087489 0.511477 -1.10504
2009-01-30 12:28:26 51°32.048 3°2.725 -999 0.087489 0.511506 -1.10504
2009-01-30 12:29:25 51°31.836 3°2.699 -999 0.087489 0.511536 -1.10504
2009-01-30 12:30:26 51°31.617 3°2.674 -999 0.087489 0.511565 -1.10504
2009-01-30 12:31:26 51°31.401 3°2.652 -999 0.087489 0.511605 -1.10504
2009-01-30 12:32:26 51°31.184 3°2.622 -999 0.087489 0.511644 -1.10504
2009-01-30 12:33:26 51°30.978 3°2.505 -999 0.087489 0.511683 -1.10504
2009-01-30 12:34:26 51°30.801 3°2.29 -999 0.087489 0.511723 -1.139864
2009-01-30 12:35:26 51°30.653 3°2.023 -999 0.087386 0.511147 -1.10504
2009-01-30 12:36:24 51°30.536 3°1.732 -999 0.087386 0.511176 -1.10504
2009-01-30 12:37:25 51°30.426 3°1.411 -999 0.087386 0.511216 -1.10504
2009-01-30 12:38:25 51°30.317 3°1.097 -999 0.087386 0.511265 -1.10504
2009-01-30 12:39:26 51°30.198 3°0.785 -999 0.087386 0.511304 -1.10504
2009-01-30 12:40:26 51°30.081 3°0.483 -999 0.087386 0.511344 -1.10504
2009-01-30 12:41:26 51°29.97 3°0.172 -999 0.087386 0.511393 -1.10504
2009-01-30 12:42:26 51°29.858 2°59.863 -999 0.087386 0.511442 -1.10504
2009-01-30 12:43:26 51°29.748 2°59.553 -999 0.087386 0.511462 -1.10504
2009-01-30 12:44:26 51°29.633 2°59.247 -999 0.087386 0.511501 -1.10504
2009-01-30 12:45:25 51°29.526 2°58.94 -999 0.087386 0.511541 -1.10504
2009-01-30 12:46:26 51°29.415 2°58.624 -999 0.087386 0.51159 -1.10504
2009-01-30 12:47:26 51°29.299 2°58.322 -999 0.087386 0.51162 -1.10504
2009-01-30 12:48:26 51°29.192 2°58.011 -999 0.087386 0.511659 -1.10504
2009-01-30 12:49:26 51°29.081 2°57.706 -999 0.087386 0.511709 -1.10504
2009-01-30 12:50:26 51°28.968 2°57.403 -999 0.087386 0.511738 -1.10504
2009-01-30 12:51:26 51°28.863 2°57.094 -999 0.087283 0.511151 -1.10504
2009-01-30 12:52:25 51°28.757 2°56.791 -999 0.087283 0.511181 -1.10504
2009-01-30 12:53:26 51°28.648 2°56.479 -999 0.087283 0.51122 -1.10504
2009-01-30 12:54:25 51°28.539 2°56.182 -999 0.087283 0.51126 -1.139864
2009-01-30 12:55:26 51°28.424 2°55.878 -999 0.087283 0.511319 -1.10504
2009-01-30 12:56:25 51°28.312 2°55.591 -999 0.087283 0.511359 -1.10504
2009-01-30 12:57:25 51°28.201 2°55.298 -999 0.087283 0.511388 -1.10504
2009-01-30 12:58:26 51°28.09 2°54.997 -999 0.087283 0.511438 -1.10504
2009-01-30 12:59:26 51°27.981 2°54.702 -999 0.087283 0.511477 -1.10504
2009-01-30 13:00:26 51°27.869 2°54.41 -999 0.087283 0.511526 -1.10504
2009-01-30 13:01:25 51°27.76 2°54.124 -999 0.087283 0.511576 -1.10504
2009-01-30 13:02:26 51°27.648 2°53.829 -999 0.087283 0.511615 -1.10504
2009-01-30 13:03:26 51°27.538 2°53.537 -999 0.087283 0.511685 -1.10504
2009-01-30 13:04:26 51°27.426 2°53.247 -999 0.087283 0.511714 -1.10504
2009-01-30 13:05:26 51°27.315 2°52.96 -999 0.08718 0.511127 -1.10504
2009-01-30 13:06:26 51°27.204 2°52.674 -999 0.08718 0.511176 -1.139864
2009-01-30 13:07:26 51°27.095 2°52.385 -999 0.08718 0.511226 -1.10504
2009-01-30 13:08:26 51°26.986 2°52.096 -999 0.08718 0.511265 -1.10504
2009-01-30 13:09:26 51°26.877 2°51.807 -999 0.08718 0.511295 -1.10504
2009-01-30 13:10:25 51°26.771 2°51.526 -999 0.08718 0.511344 -1.10504
2009-01-30 13:11:25 51°26.659 2°51.244 -999 0.08718 0.511394 -1.10504
2009-01-30 13:12:26 51°26.55 2°50.96 -999 0.08718 0.511443 -1.139864
2009-01-30 13:13:25 51°26.448 2°50.691 -999 0.08718 0.511483 -1.10504
2009-01-30 13:14:26 51°26.343 2°50.415 -999 0.08718 0.511522 -1.10504
2009-01-30 13:15:25 51°26.247 2°50.148 -999 0.08718 0.511552 -1.10504
2009-01-30 13:16:26 51°26.147 2°49.875 -999 0.08718 0.511601 -1.10504
2009-01-30 13:17:26 51°26.044 2°49.612 -999 0.08718 0.511641 -1.10504
2009-01-30 13:18:26 51°25.944 2°49.346 -999 0.08718 0.511681 -1.10504
2009-01-30 13:19:25 51°25.848 2°49.084 -999 0.08718 0.51173 -1.10504
2009-01-30 13:20:25 51°25.743 2°48.826 -999 0.087078 0.511142 -1.10504
2009-01-30 13:21:26 51°25.643 2°48.556 -999 0.087078 0.511181 -1.10504
2009-01-30 13:22:25 51°25.546 2°48.295 -999 0.087078 0.511231 -1.10504
2009-01-30 13:23:26 51°25.449 2°48.021 -999 0.087078 0.51128 -1.10504
2009-01-30 13:24:25 51°25.351 2°47.76 -999 0.087078 0.51131 -1.10504
2009-01-30 13:25:26 51°25.251 2°47.491 -999 0.087078 0.51135 -1.10504
2009-01-30 13:26:25 51°25.154 2°47.234 -999 0.087078 0.511409 -1.10504
2009-01-30 13:27:25 51°25.052 2°46.977 -999 0.087078 0.511459 -1.10504
2009-01-30 13:28:26 51°24.955 2°46.713 -999 0.087078 0.511488 -1.10504
2009-01-30 13:29:25 51°24.862 2°46.455 -999 0.087078 0.511548 -1.10504
2009-01-30 13:30:26 51°24.767 2°46.191 -999 0.087078 0.511568 -1.10504
2009-01-30 13:31:25 51°24.674 2°45.936 -999 0.087078 0.511617 -1.10504
2009-01-30 13:32:26 51°24.577 2°45.675 -999 0.087078 0.511647 -1.10504
2009-01-30 13:33:25 51°24.473 2°45.435 -999 0.087078 0.511707 -1.10504
2009-01-30 13:34:26 51°24.309 2°45.285 -999 0.087078 0.511746 -1.139864
2009-01-30 13:35:26 51°24.119 2°45.233 -999 0.086975 0.511128 -1.10504
2009-01-30 13:36:26 51°23.931 2°45.3 -999 0.086975 0.511197 -1.10504
2009-01-30 13:37:26 51°23.761 2°45.478 -999 0.086975 0.511227 -1.139864
2009-01-30 13:38:26 51°23.587 2°45.647 -999 0.086975 0.511266 -1.10504
2009-01-30 13:39:26 51°23.416 2°45.818 -999 0.086975 0.511316 -1.139864
2009-01-30 13:40:26 51°23.245 2°45.99 -999 0.086975 0.511356 -1.139864
2009-01-30 13:41:26 51°23.076 2°46.172 -999 0.086975 0.511485 -1.139864
2009-01-30 13:42:25 51°22.915 2°46.368 -999 0.086975 0.511405 -1.10504
2009-01-30 13:43:26 51°22.747 2°46.569 -999 0.086975 0.511485 -1.10504
2009-01-30 13:44:25 51°22.584 2°46.763 -999 0.086975 0.511544 -1.139864
2009-01-30 13:45:26 51°22.413 2°46.956 -999 0.086975 0.511574 -1.139864
2009-01-30 13:46:26 51°22.243 2°47.141 -999 0.086975 0.511624 -1.10504
2009-01-30 13:47:25 51°22.076 2°47.323 -999 0.086975 0.511663 -1.139864
2009-01-30 13:48:26 51°21.903 2°47.512 -999 0.086975 0.511723 -1.139864
2009-01-30 13:49:25 51°21.742 2°47.691 -999 0.086975 0.511763 -1.139864
2009-01-30 13:50:26 51°21.574 2°47.873 -999 0.086872 0.511183 -1.139864
2009-01-30 13:51:25 51°21.408 2°48.045 -999 0.086872 0.511242 -1.139864
2009-01-30 13:52:26 51°21.237 2°48.228 -999 0.086872 0.511302 -1.10504
2009-01-30 13:53:26 51°21.068 2°48.404 -999 0.086872 0.511352 -1.139864
2009-01-30 13:54:26 51°20.901 2°48.577 -999 0.086872 0.511401 -1.139864
2009-01-30 13:55:26 51°20.739 2°48.758 -999 0.086872 0.511461 -1.139864
2009-01-30 13:56:26 51°20.578 2°48.944 -999 0.086872 0.511511 -1.139864
2009-01-30 13:57:26 51°20.415 2°49.128 -999 0.086872 0.51158 -1.139864
2009-01-30 13:58:25 51°20.252 2°49.301 -999 0.086872 0.51163 -1.139864
2009-01-30 13:59:26 51°20.082 2°49.479 -999 0.086872 0.51169 -1.139864
2009-01-30 14:00:26 51°19.912 2°49.649 -999 0.086872 0.511749 -1.139864
2009-01-30 14:01:26 51°19.744 2°49.822 -999 0.086769 0.511189 -1.139864
2009-01-30 14:02:26 51°19.572 2°49.984 -999 0.086769 0.511239 -1.139864
2009-01-30 14:03:26 51°19.401 2°50.154 -999 0.086769 0.511278 -1.139864
2009-01-30 14:04:26 51°19.224 2°50.313 -999 0.086769 0.511348 -1.139864
2009-01-30 14:05:26 51°19.05 2°50.476 -999 0.086769 0.511408 -1.139864
2009-01-30 14:06:26 51°18.877 2°50.637 -999 0.086769 0.511467 -1.139864
2009-01-30 14:07:26 51°18.711 2°50.804 -999 0.086769 0.511527 -1.139864
2009-01-30 14:08:26 51°18.548 2°50.981 -999 0.086769 0.511587 -1.139864
2009-01-30 14:09:26 51°18.384 2°51.159 -999 0.086769 0.511647 -1.139864
2009-01-30 14:10:26 51°18.219 2°51.34 -999 0.086666 0.511076 -1.139864
2009-01-30 14:11:26 51°18.051 2°51.516 -999 0.086666 0.511135 -1.139864
2009-01-30 14:12:25 51°17.887 2°51.69 -999 0.086666 0.511185 -1.139864
2009-01-30 14:13:26 51°17.715 2°51.867 -999 0.086666 0.511245 -1.139864
2009-01-30 14:14:25 51°17.552 2°52.042 -999 0.086666 0.511285 -1.139864
2009-01-30 14:15:26 51°17.372 2°52.175 -999 0.086666 0.511355 -1.10504
2009-01-30 14:16:26 51°17.191 2°52.289 -999 0.086666 0.511394 -1.139864
2009-01-30 14:17:26 51°17.009 2°52.399 -999 0.086666 0.511434 -1.139864
2009-01-30 14:18:26 51°16.83 2°52.519 -999 0.086666 0.511484 -1.139864
2009-01-30 14:19:26 51°16.652 2°52.645 -999 0.086666 0.511524 -1.10504
2009-01-30 14:20:26 51°16.471 2°52.764 -999 0.086666 0.511584 -1.139864
2009-01-30 14:21:26 51°16.293 2°52.888 -999 0.086563 0.511002 -1.139864
2009-01-30 14:22:26 51°16.116 2°53.022 -999 0.086563 0.511062 -1.139864
2009-01-30 14:23:26 51°15.941 2°53.147 -999 0.086563 0.511112 -1.139864
2009-01-30 14:24:26 51°15.764 2°53.276 -999 0.086563 0.511162 -1.139864
2009-01-30 14:25:26 51°15.585 2°53.399 -999 0.086563 0.511222 -1.139864
2009-01-30 14:26:26 51°15.405 2°53.52 -999 0.086563 0.511282 -1.139864
2009-01-30 14:27:26 51°15.235 2°53.676 -999 0.086563 0.511331 -1.139864
2009-01-30 14:28:26 51°15.068 2°53.841 -999 0.086563 0.511381 -1.139864
2009-01-30 14:29:26 51°14.908 2°54.025 -999 0.086563 0.511421 -1.139864
2009-01-30 14:30:26 51°14.763 2°54.246 -999 0.086563 0.511441 -1.139864
2009-01-30 14:31:26 51°14.624 2°54.483 -999 0.086563 0.511431 -1.139864
2009-01-30 14:32:26 51°14.503 2°54.751 -999 0.086563 0.511451 -1.10504
2009-01-30 14:33:26 51°14.387 2°55.026 -999 0.086563 0.511451 -1.139864
2009-01-30 14:34:26 51°14.265 2°55.239 -999 0.086563 0.511491 -1.139864
2009-01-30 14:35:26 51°14.175 2°55.369 -999 0.086563 0.511511 -1.139864
2009-01-30 14:36:26 51°14.082 2°55.443 -999 0.08646 0.510909 -1.139864
2009-01-30 14:37:26 51°13.976 2°55.519 -999 0.08646 0.510929 -1.139864
2009-01-30 14:38:26 51°13.865 2°55.603 -999 0.086563 0.511541 -1.139864
2009-01-30 14:39:26 51°13.772 2°55.682 -999 0.086563 0.511531 -1.139864